Time;durP1;ratioP1;P1;durP2;ratioP2;P2;SDS_P1;SDS_P2;PMS_P1;PMS_P2;Temp;Humidity;BMP_temperature;BMP_pressure;BME280_temperature;BME280_humidity;BME280_pressure;Samples;Min_cycle;Max_cycle;Signal;HPM_P1;HPM_P2
2021/06/13 00:01:35;;;;;;;18.50;6.43;;;13.60;99.90;;;;;;5009269;28;20032;-63
2021/06/13 00:04:01;;;;;;;21.83;6.13;;;13.70;99.90;;;;;;4995830;28;20018;-63
2021/06/13 00:06:27;;;;;;;18.25;6.47;;;13.80;99.90;;;;;;5007216;28;20033;-63
2021/06/13 00:08:54;;;;;;;15.82;6.38;;;13.80;99.90;;;;;;5001704;28;20026;-63
2021/06/13 00:11:21;;;;;;;15.32;6.75;;;13.70;99.90;;;;;;4996862;28;20038;-67
2021/06/13 00:13:47;;;;;;;22.38;7.65;;;13.70;99.90;;;;;;5000128;28;20633;-64
2021/06/13 00:16:13;;;;;;;16.90;6.07;;;13.70;99.90;;;;;;5000215;28;20109;-63
2021/06/13 00:18:38;;;;;;;18.08;6.50;;;13.70;99.90;;;;;;4999518;28;20130;-64
2021/06/13 00:21:04;;;;;;;14.85;6.88;;;13.70;99.90;;;;;;5009304;28;20116;-63
2021/06/13 00:23:30;;;;;;;17.00;7.28;;;13.70;99.90;;;;;;5008804;28;20499;-63
2021/06/13 00:25:56;;;;;;;13.95;6.32;;;13.60;99.90;;;;;;5007351;28;20574;-64
2021/06/13 00:28:22;;;;;;;18.27;7.18;;;13.60;99.90;;;;;;5006996;28;20108;-64
2021/06/13 00:30:48;;;;;;;77.03;27.15;;;13.70;99.90;;;;;;5006000;28;20010;-63
2021/06/13 00:33:13;;;;;;;35.47;13.80;;;13.80;99.90;;;;;;5008854;28;20061;-63
2021/06/13 00:35:39;;;;;;;23.45;9.00;;;13.80;99.90;;;;;;5005520;28;20105;-63
2021/06/13 00:38:06;;;;;;;15.63;8.02;;;13.70;99.90;;;;;;5012584;28;20026;-64
2021/06/13 00:40:32;;;;;;;18.15;7.03;;;13.80;99.90;;;;;;5010991;28;20030;-64
2021/06/13 00:42:59;;;;;;;96.93;27.77;;;13.80;99.90;;;;;;5008700;28;20551;-63
2021/06/13 00:45:25;;;;;;;27.95;8.75;;;13.80;99.90;;;;;;5010012;28;20028;-64
2021/06/13 00:47:51;;;;;;;15.30;7.47;;;13.70;99.90;;;;;;5003054;28;20480;-63
2021/06/13 00:50:25;;;;;;;14.55;6.40;;;13.60;99.90;;;;;;5000559;28;20037;-62
2021/06/13 00:52:51;;;;;;;27.80;10.35;;;13.60;99.90;;;;;;5007521;28;20021;-64
2021/06/13 00:55:16;;;;;;;25.10;9.40;;;13.60;99.90;;;;;;5007934;28;20022;-64
2021/06/13 00:57:42;;;;;;;24.55;7.65;;;13.70;99.90;;;;;;5006439;28;20378;-64
2021/06/13 01:00:08;;;;;;;31.63;7.75;;;13.70;99.90;;;;;;5006737;28;20017;-64
2021/06/13 01:02:34;;;;;;;23.88;7.30;;;13.60;99.90;;;;;;4999251;28;20573;-62
2021/06/13 01:05:00;;;;;;;22.15;7.97;;;13.40;99.90;;;;;;4993342;28;20029;-63
2021/06/13 01:07:56;;;;;;;18.40;8.27;;;13.40;99.90;;;;;;5006483;28;20675;-63
2021/06/13 01:10:31;;;;;;;26.13;9.45;;;13.40;99.90;;;;;;5002875;28;20033;-63
2021/06/13 01:13:09;;;;;;;26.27;8.65;;;13.50;99.90;;;;;;5006206;28;20018;-63
2021/06/13 01:15:43;;;;;;;19.48;7.13;;;13.40;99.90;;;;;;4997471;28;20018;-63
2021/06/13 01:18:48;;;;;;;26.20;7.65;;;13.40;99.90;;;;;;5004534;28;20022;-63
2021/06/13 01:21:22;;;;;;;17.70;7.47;;;13.30;99.90;;;;;;5001561;28;20033;-63
2021/06/13 01:24:17;;;;;;;23.13;7.88;;;13.20;99.90;;;;;;5006536;28;20499;-62
2021/06/13 01:27:21;;;;;;;23.23;8.05;;;13.30;99.90;;;;;;5007203;28;20032;-63
2021/06/13 01:29:48;;;;;;;20.70;7.25;;;13.30;99.90;;;;;;4990290;28;20104;-64
2021/06/13 01:32:22;;;;;;;22.42;7.90;;;13.40;99.90;;;;;;5004067;28;20021;-64
2021/06/13 01:34:59;;;;;;;23.00;8.75;;;13.50;99.90;;;;;;5005516;28;20049;-63
2021/06/13 01:37:29;;;;;;;18.77;7.28;;;13.50;99.90;;;;;;5004961;28;20022;-62
2021/06/13 01:39:59;;;;;;;22.13;6.70;;;13.40;99.90;;;;;;5006022;28;20062;-63
2021/06/13 01:42:27;;;;;;;17.35;7.35;;;13.30;99.90;;;;;;5006833;28;20027;-63
2021/06/13 01:45:01;;;;;;;18.52;6.80;;;13.20;99.90;;;;;;5008382;28;20022;-63
2021/06/13 01:47:29;;;;;;;19.17;6.75;;;13.20;99.90;;;;;;5009349;28;20072;-62
2021/06/13 01:49:57;;;;;;;16.10;7.03;;;13.20;99.90;;;;;;5009129;28;20030;-63
2021/06/13 01:52:25;;;;;;;16.17;7.45;;;13.30;99.90;;;;;;5009958;28;20033;-62
2021/06/13 01:54:52;;;;;;;17.40;7.45;;;13.30;99.90;;;;;;5008169;28;20085;-64
2021/06/13 01:57:18;;;;;;;61.00;23.77;;;13.30;99.90;;;;;;5005644;28;20022;-63
2021/06/13 01:59:44;;;;;;;58.72;20.30;;;13.40;99.90;;;;;;5002140;28;20456;-64
2021/06/13 02:02:12;;;;;;;25.25;9.10;;;13.60;99.90;;;;;;5003622;28;20462;-63
2021/06/13 02:04:39;;;;;;;25.85;7.95;;;13.70;99.90;;;;;;5004923;28;20289;-62
2021/06/13 02:07:06;;;;;;;18.95;8.13;;;13.60;99.90;;;;;;5007476;28;20098;-63
2021/06/13 02:09:33;;;;;;;18.95;7.85;;;13.40;99.90;;;;;;5007190;28;20177;-64
2021/06/13 02:12:01;;;;;;;18.63;7.47;;;13.30;99.90;;;;;;5002409;28;20123;-63
2021/06/13 02:14:29;;;;;;;22.95;7.38;;;13.20;99.90;;;;;;5007671;28;20029;-65
2021/06/13 02:16:55;;;;;;;19.60;7.80;;;13.20;99.90;;;;;;5007279;28;20022;-62
2021/06/13 02:19:25;;;;;;;20.55;8.02;;;13.10;99.90;;;;;;5007587;28;20029;-62
2021/06/13 02:21:55;;;;;;;18.30;6.90;;;13.00;99.90;;;;;;5007366;28;20068;-64
2021/06/13 02:24:28;;;;;;;253.23;86.10;;;13.10;99.90;;;;;;4996520;28;20148;-64
2021/06/13 02:26:55;;;;;;;;;;;13.20;99.90;;;;;;5007824;28;20036;-62
2021/06/13 02:29:21;;;;;;;24.75;8.50;;;13.20;99.90;;;;;;5009038;28;20501;-63
2021/06/13 02:31:48;;;;;;;20.50;8.43;;;13.10;99.90;;;;;;5009078;28;20535;-63
2021/06/13 02:34:22;;;;;;;21.38;7.07;;;13.10;99.90;;;;;;5009157;28;20053;-62
2021/06/13 02:36:50;;;;;;;16.27;7.57;;;13.10;99.90;;;;;;5001065;28;20026;-63
2021/06/13 02:39:16;;;;;;;21.25;7.10;;;13.10;99.90;;;;;;5009526;28;20034;-64
2021/06/13 02:41:42;;;;;;;25.95;9.85;;;13.30;99.90;;;;;;5010687;28;20280;-63
2021/06/13 02:44:07;;;;;;;23.42;8.10;;;13.30;99.90;;;;;;5009367;28;20058;-64
2021/06/13 02:46:33;;;;;;;74.55;30.27;;;13.30;99.90;;;;;;5016182;28;20610;-63
2021/06/13 02:48:59;;;;;;;17.10;7.35;;;13.30;99.90;;;;;;5009247;28;20091;-63
2021/06/13 02:51:34;;;;;;;27.48;11.85;;;13.20;99.90;;;;;;5000560;28;20048;-63
2021/06/13 02:54:03;;;;;;;19.38;8.52;;;13.20;99.90;;;;;;4998263;28;20035;-64
2021/06/13 02:56:38;;;;;;;27.52;8.27;;;13.20;99.90;;;;;;5008383;28;20041;-63
2021/06/13 02:59:10;;;;;;;39.05;16.35;;;13.10;99.90;;;;;;4995225;28;20680;-63
2021/06/13 03:01:41;;;;;;;21.55;8.27;;;13.10;99.90;;;;;;5020674;28;20569;-64
2021/06/13 03:04:13;;;;;;;16.50;8.02;;;13.30;99.90;;;;;;5000143;28;20037;-63
2021/06/13 03:06:39;;;;;;;21.38;7.72;;;13.30;99.90;;;;;;5005295;28;20026;-63
2021/06/13 03:09:05;;;;;;;21.30;6.95;;;13.30;99.90;;;;;;4995766;28;20018;-63
2021/06/13 03:11:31;;;;;;;20.27;7.70;;;13.10;99.90;;;;;;5007308;28;20088;-63
2021/06/13 03:13:58;;;;;;;21.10;7.63;;;13.00;99.90;;;;;;5000421;28;20072;-63
2021/06/13 03:16:25;;;;;;;26.23;9.13;;;12.90;99.90;;;;;;5008723;28;20033;-64
2021/06/13 03:18:51;;;;;;;22.20;7.68;;;12.90;99.90;;;;;;4999237;28;20022;-62
2021/06/13 03:21:18;;;;;;;17.55;7.75;;;13.00;99.90;;;;;;4999510;28;20452;-62
2021/06/13 03:23:44;;;;;;;23.23;8.02;;;13.10;99.90;;;;;;5006409;28;20052;-63
2021/06/13 03:26:12;;;;;;;18.83;7.70;;;13.20;99.90;;;;;;5001147;28;20022;-61
2021/06/13 03:28:39;;;;;;;19.38;7.45;;;13.20;99.90;;;;;;5008881;28;20057;-62
2021/06/13 03:31:06;;;;;;;23.10;8.25;;;13.20;99.90;;;;;;5012765;28;20033;-63
2021/06/13 03:33:35;;;;;;;20.45;8.02;;;13.10;99.90;;;;;;5010195;28;20026;-63
2021/06/13 03:36:02;;;;;;;24.10;8.43;;;13.10;99.90;;;;;;5007279;28;20042;-63
2021/06/13 03:38:28;;;;;;;13.82;8.07;;;13.00;99.90;;;;;;5000224;28;20038;-63
2021/06/13 03:40:56;;;;;;;19.08;8.60;;;13.00;99.90;;;;;;5003756;28;20044;-61
2021/06/13 03:43:23;;;;;;;20.90;8.25;;;13.00;99.90;;;;;;5009053;28;20521;-63
2021/06/13 03:45:49;;;;;;;24.75;11.27;;;13.00;99.90;;;;;;4991311;28;20110;-64
2021/06/13 03:48:17;;;;;;;23.10;11.05;;;13.00;99.90;;;;;;4994889;28;20082;-64
2021/06/13 03:50:44;;;;;;;96.13;44.08;;;13.10;99.90;;;;;;5004821;28;20049;-64
2021/06/13 03:53:10;;;;;;;35.97;18.55;;;13.30;99.90;;;;;;4999761;28;20037;-63
2021/06/13 03:55:36;;;;;;;26.15;10.07;;;13.40;99.90;;;;;;5009809;28;20344;-66
2021/06/13 03:58:01;;;;;;;19.20;8.95;;;13.50;99.90;;;;;;5005489;28;20555;-64
2021/06/13 04:00:30;;;;;;;22.05;9.23;;;13.30;99.90;;;;;;4998923;28;20026;-63
2021/06/13 04:02:57;;;;;;;18.63;7.13;;;13.20;99.90;;;;;;5008538;28;20033;-63
2021/06/13 04:05:23;;;;;;;22.20;8.02;;;13.30;99.90;;;;;;5005166;28;20034;-63
2021/06/13 04:07:48;;;;;;;20.60;7.90;;;13.40;99.90;;;;;;5007172;28;20101;-62
2021/06/13 04:10:16;;;;;;;18.75;7.80;;;13.40;99.90;;;;;;5007190;28;20043;-63
2021/06/13 04:12:46;;;;;;;23.40;8.35;;;13.50;99.90;;;;;;5009167;28;20104;-64
2021/06/13 04:15:12;;;;;;;22.42;8.10;;;13.60;99.90;;;;;;5006262;28;20408;-63
2021/06/13 04:17:39;;;;;;;29.75;9.77;;;13.50;99.90;;;;;;5001763;28;20105;-62
2021/06/13 04:20:08;;;;;;;21.42;8.15;;;13.50;99.90;;;;;;5000408;28;20089;-62
2021/06/13 04:22:35;;;;;;;19.35;8.25;;;13.50;99.90;;;;;;4996694;28;20023;-63
2021/06/13 04:25:01;;;;;;;26.73;9.25;;;13.60;99.90;;;;;;4999865;28;20030;-64
2021/06/13 04:27:28;;;;;;;15.18;8.00;;;13.50;99.90;;;;;;5012411;28;20591;-63
2021/06/13 04:29:59;;;;;;;22.92;9.18;;;13.30;99.90;;;;;;5021304;28;20033;-63
2021/06/13 04:32:25;;;;;;;28.33;8.73;;;13.20;99.90;;;;;;5011947;28;20021;-63
2021/06/13 04:34:51;;;;;;;33.72;9.75;;;13.20;99.90;;;;;;4997334;28;20026;-63
2021/06/13 04:37:17;;;;;;;19.30;8.32;;;13.30;99.90;;;;;;4999169;28;20022;-63
2021/06/13 04:39:43;;;;;;;19.85;8.35;;;13.40;99.90;;;;;;4998025;28;20030;-63
2021/06/13 04:42:09;;;;;;;27.13;8.75;;;13.50;99.90;;;;;;4994637;28;20493;-65
2021/06/13 04:44:37;;;;;;;25.38;8.75;;;13.50;99.90;;;;;;4999867;28;20036;-64
2021/06/13 04:47:04;;;;;;;19.63;8.43;;;13.50;99.90;;;;;;4997355;28;20121;-64
2021/06/13 04:49:32;;;;;;;23.90;8.57;;;13.60;99.90;;;;;;5000590;28;20453;-63
2021/06/13 04:51:59;;;;;;;21.42;9.48;;;13.50;99.90;;;;;;5000619;28;20028;-63
2021/06/13 04:54:25;;;;;;;22.70;8.40;;;13.40;99.90;;;;;;5000932;28;20548;-63
2021/06/13 04:57:08;;;;;;;17.88;8.25;;;13.50;99.90;;;;;;5006547;28;20033;-65
2021/06/13 04:59:34;;;;;;;20.35;7.90;;;13.50;99.90;;;;;;5004287;28;20050;-63
2021/06/13 05:02:00;;;;;;;22.38;8.32;;;13.70;99.90;;;;;;5003617;28;20357;-65
2021/06/13 05:04:26;;;;;;;27.80;8.75;;;13.60;99.90;;;;;;5000442;28;20757;-63
2021/06/13 05:06:52;;;;;;;22.35;8.65;;;13.60;99.90;;;;;;5000680;28;20030;-63
2021/06/13 05:09:18;;;;;;;21.60;7.63;;;13.60;99.90;;;;;;4995374;28;20033;-62
2021/06/13 05:11:43;;;;;;;18.02;7.55;;;13.70;99.90;;;;;;4996213;28;20691;-62
2021/06/13 05:14:09;;;;;;;26.30;7.35;;;13.80;99.90;;;;;;4999503;28;20034;-63
2021/06/13 05:16:35;;;;;;;22.45;8.00;;;13.90;99.90;;;;;;5007049;28;20542;-61
2021/06/13 05:19:00;;;;;;;20.20;7.60;;;14.00;99.90;;;;;;5001905;28;20113;-63
2021/06/13 05:21:26;;;;;;;25.65;7.30;;;14.00;99.90;;;;;;5002122;28;20773;-62
2021/06/13 05:23:52;;;;;;;22.85;7.88;;;13.90;99.90;;;;;;5041328;23;20521;-63
2021/06/13 05:26:17;;;;;;;20.90;6.70;;;13.80;99.90;;;;;;5076168;28;20265;-63
2021/06/13 05:28:43;;;;;;;16.52;6.13;;;13.90;99.90;;;;;;5057989;28;20083;-62
2021/06/13 05:31:09;;;;;;;14.60;6.93;;;13.90;99.90;;;;;;5052567;28;20031;-61
2021/06/13 05:33:34;;;;;;;18.45;6.65;;;13.80;99.90;;;;;;5056239;28;20021;-62
2021/06/13 05:36:01;;;;;;;17.88;6.93;;;14.00;99.90;;;;;;5054172;28;20119;-62
2021/06/13 05:38:28;;;;;;;18.15;6.45;;;14.20;99.90;;;;;;5060925;28;20024;-63
2021/06/13 05:40:54;;;;;;;22.60;7.45;;;14.30;99.90;;;;;;5067914;28;20024;-65
2021/06/13 05:43:20;;;;;;;18.50;6.80;;;14.50;99.90;;;;;;5066708;28;20111;-63
2021/06/13 05:45:46;;;;;;;21.48;6.60;;;14.50;99.90;;;;;;5063963;28;20134;-63
2021/06/13 05:48:11;;;;;;;25.50;8.18;;;14.40;99.90;;;;;;5060661;28;20043;-63
2021/06/13 05:50:37;;;;;;;16.58;7.00;;;14.50;99.90;;;;;;5052113;28;20080;-62
2021/06/13 05:53:05;;;;;;;16.15;6.82;;;14.40;99.90;;;;;;5052804;28;20067;-62
2021/06/13 05:55:31;;;;;;;16.15;7.38;;;14.30;99.90;;;;;;5059647;28;20504;-62
2021/06/13 05:57:57;;;;;;;15.60;7.32;;;14.30;99.90;;;;;;5054382;28;20021;-62
2021/06/13 06:00:32;;;;;;;15.93;5.25;;;14.30;99.90;;;;;;5061934;28;20024;-63
2021/06/13 06:02:57;;;;;;;19.40;5.57;;;14.50;99.90;;;;;;5060555;28;20144;-63
2021/06/13 06:05:24;;;;;;;21.92;7.88;;;14.60;99.90;;;;;;5063343;28;20089;-65
2021/06/13 06:07:51;;;;;;;24.30;6.40;;;14.80;99.90;;;;;;5062806;28;20450;-63
2021/06/13 06:10:18;;;;;;;18.95;5.55;;;15.10;99.90;;;;;;5066358;28;20174;-63
2021/06/13 06:12:43;;;;;;;35.00;9.70;;;15.20;99.90;;;;;;5066313;28;20438;-64
2021/06/13 06:15:14;;;;;;;13.77;5.38;;;15.40;99.90;;;;;;5061515;28;20126;-63
2021/06/13 06:17:41;;;;;;;14.07;5.45;;;15.60;99.90;;;;;;5057323;28;20582;-62
2021/06/13 06:20:10;;;;;;;18.98;5.60;;;15.80;99.90;;;;;;5057586;28;20479;-66
2021/06/13 06:22:36;;;;;;;22.20;5.63;;;15.40;99.90;;;;;;5062653;28;20035;-63
2021/06/13 06:25:04;;;;;;;14.65;5.63;;;15.50;99.90;;;;;;5064150;28;20084;-63
2021/06/13 06:27:29;;;;;;;11.38;4.43;;;15.60;99.90;;;;;;5064048;28;20038;-61
2021/06/13 06:29:55;;;;;;;14.95;5.20;;;15.60;99.90;;;;;;5063759;28;20061;-62
2021/06/13 06:32:21;;;;;;;15.25;6.57;;;15.70;99.90;;;;;;5066790;28;20055;-63
2021/06/13 06:34:46;;;;;;;18.35;5.80;;;15.80;99.90;;;;;;5056908;28;20025;-63
2021/06/13 06:37:12;;;;;;;16.35;5.05;;;15.80;99.90;;;;;;5060271;28;20033;-64
2021/06/13 06:39:37;;;;;;;15.02;5.47;;;16.00;99.90;;;;;;5061672;28;20040;-63
2021/06/13 06:42:04;;;;;;;17.05;5.78;;;15.70;99.90;;;;;;5064483;28;20029;-64
2021/06/13 06:44:29;;;;;;;15.40;6.00;;;15.60;99.90;;;;;;5063765;28;20057;-65
2021/06/13 06:46:55;;;;;;;12.55;5.15;;;15.70;99.90;;;;;;5059303;28;20033;-66
2021/06/13 06:49:20;;;;;;;9.75;4.85;;;16.10;99.90;;;;;;5062175;28;20102;-65
2021/06/13 06:51:46;;;;;;;14.55;5.18;;;16.90;99.90;;;;;;5064600;28;20043;-64
2021/06/13 06:54:11;;;;;;;14.27;6.13;;;17.30;99.90;;;;;;5056763;28;20040;-63
2021/06/13 06:56:37;;;;;;;21.90;5.82;;;17.10;99.90;;;;;;5062627;28;20224;-62
2021/06/13 06:59:03;;;;;;;18.33;5.32;;;16.80;99.90;;;;;;5052286;28;20070;-63
2021/06/13 07:01:29;;;;;;;20.58;5.30;;;16.60;99.90;;;;;;5063505;28;20020;-63
2021/06/13 07:03:54;;;;;;;13.68;5.50;;;16.10;99.90;;;;;;5064813;28;20035;-64
2021/06/13 07:06:20;;;;;;;18.40;5.05;;;16.20;99.90;;;;;;5065159;28;20070;-65
2021/06/13 07:08:45;;;;;;;17.70;5.53;;;16.50;99.90;;;;;;5061590;28;20457;-66
2021/06/13 07:11:11;;;;;;;14.93;5.28;;;17.10;99.90;;;;;;5067622;28;20035;-68
2021/06/13 07:13:37;;;;;;;15.98;6.20;;;17.30;99.90;;;;;;5059313;28;20055;-64
2021/06/13 07:16:03;;;;;;;14.02;4.60;;;17.30;99.90;;;;;;5062637;28;20024;-65
2021/06/13 07:18:28;;;;;;;10.05;4.03;;;17.40;99.90;;;;;;5076759;28;20099;-61
2021/06/13 07:20:54;;;;;;;16.40;4.90;;;17.00;99.90;;;;;;5083048;28;20039;-65
2021/06/13 07:23:20;;;;;;;17.20;5.07;;;16.70;99.90;;;;;;5089216;28;20505;-65
2021/06/13 07:25:47;;;;;;;15.25;4.85;;;17.00;99.90;;;;;;5075087;28;20029;-63
2021/06/13 07:28:13;;;;;;;10.55;4.13;;;17.20;99.90;;;;;;5062822;28;20021;-63
2021/06/13 07:30:40;;;;;;;14.07;5.15;;;17.70;99.90;;;;;;5054536;28;20017;-63
2021/06/13 07:33:06;;;;;;;12.18;4.07;;;17.90;99.90;;;;;;5054431;28;20016;-64
2021/06/13 07:35:32;;;;;;;17.15;4.53;;;17.40;99.90;;;;;;5065645;28;20108;-63
2021/06/13 07:38:00;;;;;;;9.38;4.25;;;17.20;99.90;;;;;;5067313;28;20120;-64
2021/06/13 07:40:27;;;;;;;11.57;4.50;;;17.50;99.90;;;;;;5054087;28;20035;-64
2021/06/13 07:42:52;;;;;;;12.18;4.38;;;17.70;99.90;;;;;;5066576;28;20067;-65
2021/06/13 07:45:18;;;;;;;18.15;4.88;;;17.80;99.90;;;;;;5058251;28;20067;-65
2021/06/13 07:47:44;;;;;;;17.77;5.30;;;17.60;99.90;;;;;;5061626;28;20040;-64
2021/06/13 07:50:12;;;;;;;17.00;4.53;;;17.10;99.90;;;;;;5066390;28;20483;-64
2021/06/13 07:52:38;;;;;;;12.60;4.95;;;16.80;99.90;;;;;;5059413;28;20466;-62
2021/06/13 07:55:06;;;;;;;9.90;4.28;;;16.80;99.90;;;;;;5054952;28;20100;-63
2021/06/13 07:57:32;;;;;;;10.77;4.45;;;17.00;99.90;;;;;;5056215;28;20096;-66
2021/06/13 07:59:58;;;;;;;15.07;4.22;;;17.10;99.90;;;;;;5059167;28;20037;-65
2021/06/13 08:02:23;;;;;;;16.70;4.90;;;17.30;99.90;;;;;;5060544;28;20032;-63
2021/06/13 08:04:54;;;;;;;14.82;4.57;;;17.60;99.90;;;;;;5060832;28;20056;-65
2021/06/13 08:07:19;;;;;;;14.48;4.20;;;17.20;99.90;;;;;;5054344;28;20029;-64
2021/06/13 08:09:45;;;;;;;16.20;5.00;;;17.20;99.90;;;;;;5054309;28;20402;-65
2021/06/13 08:12:11;;;;;;;11.90;4.18;;;17.50;99.90;;;;;;5057247;28;20016;-65
2021/06/13 08:14:39;;;;;;;11.82;4.03;;;17.70;99.90;;;;;;5053871;28;20032;-63
2021/06/13 08:17:04;;;;;;;8.48;3.65;;;17.90;99.90;;;;;;5061804;28;20445;-65
2021/06/13 08:19:30;;;;;;;15.35;4.85;;;17.80;99.90;;;;;;5055272;28;20715;-65
2021/06/13 08:21:56;;;;;;;16.58;4.32;;;17.70;99.90;;;;;;5058896;28;20040;-63
2021/06/13 08:24:21;;;;;;;11.88;4.35;;;17.90;99.90;;;;;;5060051;28;20088;-66
2021/06/13 08:26:47;;;;;;;11.40;4.70;;;17.90;99.90;;;;;;5054702;28;20275;-65
2021/06/13 08:29:13;;;;;;;12.85;4.57;;;18.00;99.90;;;;;;5064511;28;20043;-65
2021/06/13 08:31:38;;;;;;;11.18;3.88;;;18.10;99.90;;;;;;5064473;28;20077;-66
2021/06/13 08:34:05;;;;;;;12.63;5.53;;;18.40;99.90;;;;;;5069339;28;20466;-68
2021/06/13 08:36:32;;;;;;;9.45;4.20;;;18.60;99.90;;;;;;5072867;28;20044;-65
2021/06/13 08:38:58;;;;;;;15.10;4.75;;;18.60;99.90;;;;;;5070264;28;20024;-67
2021/06/13 08:41:25;;;;;;;13.30;5.03;;;18.40;99.90;;;;;;5065109;28;20135;-65
2021/06/13 08:43:51;;;;;;;12.80;4.75;;;18.40;99.90;;;;;;5067809;28;20035;-64
2021/06/13 08:46:19;;;;;;;10.73;4.20;;;18.50;99.90;;;;;;5075743;28;20528;-67
2021/06/13 08:48:48;;;;;;;15.07;4.78;;;18.50;99.90;;;;;;5066595;28;20535;-65
2021/06/13 08:51:14;;;;;;;8.23;3.72;;;18.60;99.90;;;;;;5058249;28;20028;-65
2021/06/13 08:53:44;;;;;;;12.15;3.90;;;18.70;99.90;;;;;;5060771;28;20095;-65
2021/06/13 08:56:14;;;;;;;10.57;4.18;;;18.80;99.90;;;;;;5058502;28;20030;-65
2021/06/13 08:58:41;;;;;;;9.88;4.10;;;18.80;99.90;;;;;;5058366;28;20021;-64
2021/06/13 09:01:09;;;;;;;11.40;4.18;;;18.70;99.90;;;;;;5058411;28;20116;-65
2021/06/13 09:03:35;;;;;;;8.18;3.50;;;18.80;99.90;;;;;;5065622;28;20024;-65
2021/06/13 09:06:01;;;;;;;5.80;3.10;;;19.00;99.90;;;;;;5060667;28;20021;-64
2021/06/13 09:08:40;;;;;;;9.95;3.38;;;19.00;99.90;;;;;;5050376;28;20050;-64
2021/06/13 09:11:07;;;;;;;5.97;2.65;;;18.40;99.90;;;;;;5058172;28;20119;-64
2021/06/13 09:13:34;;;;;;;13.25;3.20;;;18.30;99.90;;;;;;5058807;28;20109;-64
2021/06/13 09:16:02;;;;;;;4.60;2.33;;;18.30;99.90;;;;;;5058151;28;20544;-64
2021/06/13 09:18:39;;;;;;;12.73;3.55;;;18.40;99.90;;;;;;5048358;28;20033;-64
2021/06/13 09:21:12;;;;;;;9.90;3.40;;;18.40;99.90;;;;;;5064027;28;20033;-66
2021/06/13 09:23:39;;;;;;;10.23;3.55;;;18.60;99.90;;;;;;5062667;28;20032;-65
2021/06/13 09:26:07;;;;;;;9.40;3.00;;;18.80;99.90;;;;;;5058370;28;20085;-66
2021/06/13 09:28:40;;;;;;;9.13;3.22;;;18.90;99.90;;;;;;5063250;28;20021;-64
2021/06/13 09:31:15;;;;;;;8.80;3.88;;;19.10;99.90;;;;;;5060277;28;20062;-64
2021/06/13 09:33:41;;;;;;;7.13;2.88;;;19.10;99.90;;;;;;5065520;28;20104;-64
2021/06/13 09:36:09;;;;;;;6.60;3.25;;;19.30;99.90;;;;;;5068205;28;20020;-65
2021/06/13 09:38:42;;;;;;;7.97;2.50;;;19.40;99.90;;;;;;5075581;28;20031;-66
2021/06/13 09:41:11;;;;;;;10.88;3.40;;;19.40;99.90;;;;;;5085473;28;20287;-67
2021/06/13 09:43:38;;;;;;;6.50;3.00;;;19.50;99.90;;;;;;5066524;28;20040;-64
2021/06/13 09:46:07;;;;;;;13.95;3.25;;;19.20;99.90;;;;;;5062498;28;20329;-66
2021/06/13 09:48:38;;;;;;;7.60;3.42;;;19.20;99.90;;;;;;5065506;28;20024;-67
2021/06/13 09:51:09;;;;;;;9.75;3.20;;;19.20;99.90;;;;;;5065328;28;20024;-65
2021/06/13 09:53:44;;;;;;;6.50;3.50;;;19.60;99.90;;;;;;5063709;28;20047;-64
2021/06/13 09:56:12;;;;;;;12.25;3.35;;;19.60;99.90;;;;;;5063270;28;21136;-64
2021/06/13 09:59:00;;;;;;;8.00;3.40;;;19.10;99.90;;;;;;5062104;28;20115;-64
2021/06/13 10:01:36;;;;;;;9.73;3.13;;;19.20;99.90;;;;;;5055939;28;20047;-65
2021/06/13 10:04:02;;;;;;;11.15;3.40;;;19.60;99.90;;;;;;5058183;28;20130;-65
2021/06/13 10:06:30;;;;;;;8.77;3.33;;;19.60;99.90;;;;;;5051323;28;20111;-66
2021/06/13 10:08:57;;;;;;;8.52;3.70;;;19.70;99.90;;;;;;5049911;28;20024;-65
2021/06/13 10:11:23;;;;;;;6.28;3.63;;;19.30;99.90;;;;;;5058653;28;20047;-64
2021/06/13 10:13:50;;;;;;;7.07;3.17;;;19.10;99.90;;;;;;5061770;28;20075;-66
2021/06/13 10:16:35;;;;;;;13.23;3.30;;;19.20;99.90;;;;;;5065595;28;20029;-65
2021/06/13 10:19:10;;;;;;;11.70;3.55;;;19.10;99.90;;;;;;5062590;28;20021;-65
2021/06/13 10:21:42;;;;;;;8.75;2.97;;;19.30;99.90;;;;;;5064349;28;20527;-65
2021/06/13 10:24:11;;;;;;;9.48;3.42;;;19.70;99.90;;;;;;5068863;28;20120;-66
2021/06/13 10:26:39;;;;;;;8.10;2.80;;;20.20;99.90;;;;;;5058147;28;20024;-67
2021/06/13 10:29:06;;;;;;;9.27;2.70;;;20.70;99.90;;;;;;5063291;28;20066;-66
2021/06/13 10:31:33;;;;;;;12.23;3.22;;;21.00;99.90;;;;;;5062488;28;20106;-65
2021/06/13 10:33:59;;;;;;;8.07;3.40;;;21.00;99.90;;;;;;5053778;28;20180;-66
2021/06/13 10:36:27;;;;;;;11.48;3.65;;;20.90;99.90;;;;;;5044482;28;20036;-65
2021/06/13 10:38:52;;;;;;;9.38;3.17;;;20.90;99.90;;;;;;5045170;28;20021;-66
2021/06/13 10:41:18;;;;;;;9.60;3.63;;;20.70;99.90;;;;;;5050595;28;20119;-68
2021/06/13 10:43:44;;;;;;;6.00;3.28;;;20.70;99.90;;;;;;5050153;28;20561;-68
2021/06/13 10:46:17;;;;;;;6.07;3.22;;;20.50;99.90;;;;;;5055394;28;20024;-66
2021/06/13 10:48:50;;;;;;;8.80;2.97;;;20.20;99.90;;;;;;5058293;28;20512;-64
2021/06/13 10:51:34;;;;;;;6.70;3.30;;;20.10;99.90;;;;;;5058875;28;20020;-64
2021/06/13 10:54:22;;;;;;;10.65;3.72;;;20.10;99.90;;;;;;5064174;28;20121;-67
2021/06/13 10:56:49;;;;;;;6.88;3.00;;;20.40;99.90;;;;;;5067089;28;20037;-66
2021/06/13 10:59:18;;;;;;;10.18;3.20;;;20.20;99.90;;;;;;5063275;28;20028;-65
2021/06/13 11:02:08;;;;;;;7.20;3.20;;;20.30;99.90;;;;;;5067691;28;20097;-64
2021/06/13 11:04:53;;;;;;;8.63;3.38;;;20.70;99.90;;;;;;5084454;28;20029;-65
2021/06/13 11:08:01;;;;;;;9.32;3.17;;;20.90;99.90;;;;;;5076052;28;20013;-65
2021/06/13 11:10:24;;;;;;;11.80;3.00;;;20.90;99.90;;;;;;5060927;28;20494;-66
2021/06/13 11:12:57;;;;;;;5.65;2.88;;;20.80;99.90;;;;;;5065760;28;20073;-66
2021/06/13 11:15:22;;;;;;;7.18;2.92;;;20.90;99.90;;;;;;5067853;28;20017;-64
2021/06/13 11:18:17;;;;;;;10.63;3.53;;;21.20;99.90;;;;;;5064922;28;20021;-64
2021/06/13 11:21:09;;;;;;;12.30;4.13;;;21.20;99.70;;;;;;5044693;28;20040;-66
2021/06/13 11:23:35;;;;;;;8.38;3.80;;;20.40;99.90;;;;;;5073230;22;20435;-65
2021/06/13 11:26:03;;;;;;;9.57;3.42;;;20.80;99.90;;;;;;5049116;28;20289;-64
2021/06/13 11:28:47;;;;;;;8.98;4.07;;;20.80;99.90;;;;;;5048357;28;20017;-64
2021/06/13 11:31:13;;;;;;;7.47;2.78;;;20.90;99.90;;;;;;5047250;28;20052;-63
2021/06/13 11:33:44;;;;;;;11.75;3.65;;;20.90;99.90;;;;;;5052320;28;20025;-65
2021/06/13 11:36:18;;;;;;;7.95;3.97;;;21.20;99.90;;;;;;5051611;28;20094;-66
2021/06/13 11:39:16;;;;;;;6.82;3.40;;;21.60;99.80;;;;;;5048310;28;20033;-63
2021/06/13 11:41:45;;;;;;;10.00;3.50;;;21.40;99.40;;;;;;5030667;28;20044;-65
2021/06/13 11:44:19;;;;;;;6.10;3.38;;;21.40;99.90;;;;;;5047511;28;20032;-62
2021/06/13 11:46:48;;;;;;;6.13;3.35;;;21.30;99.90;;;;;;5047703;28;20353;-66
2021/06/13 11:49:17;;;;;;;6.38;3.72;;;21.80;99.50;;;;;;5047644;28;20017;-64
2021/06/13 11:52:01;;;;;;;12.00;3.25;;;21.90;98.60;;;;;;5049058;28;20225;-62
2021/06/13 11:54:30;;;;;;;9.02;2.83;;;21.80;99.10;;;;;;5042333;28;20021;-64
2021/06/13 11:56:57;;;;;;;8.60;3.72;;;21.80;99.80;;;;;;5035217;28;20029;-65
2021/06/13 11:59:24;;;;;;;9.27;3.25;;;22.10;99.00;;;;;;5037688;28;20211;-63
2021/06/13 12:01:58;;;;;;;9.50;3.38;;;22.40;98.90;;;;;;5044368;28;20017;-64
2021/06/13 12:04:26;;;;;;;12.38;3.17;;;22.70;97.70;;;;;;5040530;28;20036;-64
2021/06/13 12:06:53;;;;;;;9.35;3.70;;;22.80;97.10;;;;;;5042455;28;20511;-65
2021/06/13 12:09:21;;;;;;;6.43;3.55;;;22.90;96.60;;;;;;5044894;28;20115;-64
2021/06/13 12:11:54;;;;;;;11.20;3.53;;;23.00;96.40;;;;;;5034285;28;20098;-64
2021/06/13 12:14:40;;;;;;;11.80;3.30;;;22.60;96.80;;;;;;5042899;28;20056;-63
2021/06/13 12:17:14;;;;;;;13.88;4.13;;;22.30;97.20;;;;;;5037887;28;20394;-65
2021/06/13 12:19:57;;;;;;;9.77;3.65;;;21.90;98.20;;;;;;5050241;28;20036;-63
2021/06/13 12:22:48;;;;;;;7.40;3.30;;;22.40;97.60;;;;;;5051759;28;20029;-65
2021/06/13 12:27:48;;;;;;;9.23;3.65;;;22.70;97.00;;;;;;5048982;28;20025;-64
2021/06/13 12:30:15;;;;;;;10.23;4.10;;;22.80;98.20;;;;;;5044948;28;20087;-64
2021/06/13 12:32:42;;;;;;;7.03;3.25;;;23.10;97.60;;;;;;5047650;28;20025;-66
2021/06/13 12:35:09;;;;;;;8.38;3.13;;;23.30;98.00;;;;;;5047045;28;20043;-64
2021/06/13 12:37:36;;;;;;;9.25;3.90;;;23.50;96.70;;;;;;5037710;28;20021;-63
2021/06/13 12:40:10;;;;;;;11.85;3.58;;;23.10;96.40;;;;;;5049256;28;20610;-64
2021/06/13 12:42:37;;;;;;;9.27;3.97;;;23.30;96.80;;;;;;5036147;28;20031;-64
2021/06/13 12:45:12;;;;;;;8.68;3.38;;;23.30;96.00;;;;;;5047585;28;20083;-63
2021/06/13 12:47:39;;;;;;;5.53;3.35;;;23.40;96.70;;;;;;5040097;28;20067;-63
2021/06/13 12:50:07;;;;;;;7.13;3.30;;;23.10;96.00;;;;;;5050188;28;20029;-66